Latest Weather Observations for White Cliffs AWS

IDN60801

Issued at 4:02 am EDT Monday 21 January 2019 (issued every 10 minutes, with the page automatically refreshed every 10 minutes)

About weather observations | Map of weather stations | Latest weather observations for NSW | Other Formats
Station Details ID: 046129 Name: WHITE CLIFFS AWS Lat: -30.85 Lon: 143.07 Height: 158.0 m
Data from the previous 72 hours. | See also: Recent months at White Cliffs AWS
Date/Time
EDT
Temp
°C
App
Temp
°C
Dew
Point
°C
Rel
Hum
%
Delta-T
°C
Wind Press
QNH
hPa
Press
MSL
hPa
Rain since
9am
mm
Dir  Spd
km/h
Gust
km/h
Spd
kts
Gust
kts
21/04:00am 28.7 25.1 2.8 19 13.0 SE 11 17 6 9 1012.8 1011.7 0.0
21/03:30am 29.0 25.0 3.1 19 13.1 SSE 13 17 7 9 1013.1 1012.0 0.0
21/03:00am 29.1 24.8 3.1 19 13.1 SSE 15 19 8 10 1013.2 1012.1 0.0
21/02:30am 29.1 24.4 3.1 19 13.1 S 17 22 9 12 1013.1 1012.0 0.0
21/02:00am 29.3 24.1 3.3 19 13.2 S 20 26 11 14 1013.3 1012.2 0.0
21/01:30am 29.5 24.5 3.5 19 13.2 S 19 24 10 13 1013.7 1012.6 0.0
21/01:00am 29.6 24.3 2.8 18 13.5 S 20 24 11 13 1013.9 1012.8 0.0
21/12:30am 29.8 24.7 2.9 18 13.6 S 19 22 10 12 1014.1 1013.0 0.0
21/12:00am 30.1 24.3 2.4 17 13.9 S 22 26 12 14 1014.2 1013.1 0.0
 
Date/Time
EDT
Temp
°C
App
Temp
°C
Dew
Point
°C
Rel
Hum
%
Delta-T
°C
Wind Press
QNH
hPa
Press
MSL
hPa
Rain since
9am
mm
Dir  Spd
km/h
Gust
km/h
Spd
kts
Gust
kts
20/11:30pm 30.5 25.0 1.9 16 14.3 S 20 28 11 15 1014.3 1013.2 0.0
20/11:00pm 31.0 24.5 0.4 14 14.9 S 24 32 13 17 1014.4 1013.3 0.0
20/10:30pm 31.5 24.8 -1.3 12 15.6 S 24 32 13 17 1014.4 1013.3 0.0
20/10:00pm 32.0 26.2 0.2 13 15.6 S 20 28 11 15 1014.3 1013.2 0.0
20/09:30pm 32.4 26.5 1.5 14 15.5 SSE 22 28 12 15 1014.1 1013.0 0.0
20/09:00pm 32.9 27.0 1.9 14 15.7 SSE 22 28 12 15 1013.8 1012.7 0.0
20/08:30pm 33.5 28.4 3.3 15 15.7 SE 19 22 10 12 1013.3 1012.2 0.0
20/08:00pm 33.7 28.5 3.5 15 15.8 SE 20 26 11 14 1013.2 1012.1 0.0
20/07:30pm 33.9 27.4 2.7 14 16.1 SSE 26 32 14 17 1013.2 1012.1 0.0
20/07:00pm 34.7 27.8 2.3 13 16.7 SE 28 35 15 19 1013.0 1011.9 0.0
20/06:30pm 35.3 27.7 2.7 13 17.0 SSE 32 39 17 21 1013.1 1012.0 0.0
20/06:00pm 35.9 28.9 2.1 12 17.5 SSE 28 39 15 21 1013.0 1011.9 0.0
20/05:30pm 37.2 29.4 1.8 11 18.4 SSE 32 39 17 21 1012.8 1011.7 0.0
20/05:00pm 38.7 31.9 3.0 11 19.0 SSE 28 39 15 21 1012.8 1011.7 0.0
20/04:30pm 37.9 31.0 2.4 11 18.6 SSE 28 41 15 22 1013.2 1012.1 0.0
20/04:00pm 38.9 32.3 1.8 10 19.4 SSE 26 37 14 20 1013.2 1012.1 0.0
20/03:30pm 39.1 32.1 1.9 10 19.5 SSE 28 39 15 21 1013.5 1012.4 0.0
20/03:00pm 38.6 32.1 2.9 11 19.0 SSE 26 35 14 19 1014.0 1012.9 0.0
20/02:30pm 37.2 30.9 1.8 11 18.4 SE 24 33 13 18 1014.4 1013.3 0.0
20/02:00pm 37.2 30.4 0.5 10 18.6 SE 26 37 14 20 1014.7 1013.6 0.0
20/01:30pm 37.2 29.6 0.5 10 18.6 SSE 30 39 16 21 1014.9 1013.8 0.0
20/01:00pm 36.2 28.7 1.1 11 17.9 SSE 30 41 16 22 1015.1 1014.0 0.0
20/12:30pm 35.3 27.7 0.4 11 17.5 SSE 30 37 16 20 1015.5 1014.4 0.0
20/12:00pm 35.6 27.6 0.6 11 17.6 SSE 32 41 17 22 1015.7 1014.6 0.0
20/11:30am 34.4 26.7 -0.3 11 17.1 SSE 30 39 16 21 1016.0 1014.9 0.0
20/11:00am 33.7 26.1 0.4 12 16.5 SSE 30 37 16 20 1016.3 1015.2 0.0
20/10:30am 31.8 24.5 0.0 13 15.5 SSE 28 35 15 19 1016.5 1015.3 0.0
20/10:00am 30.3 23.4 -0.1 14 14.6 SSE 26 33 14 18 1016.3 1015.2 0.0
20/09:30am 29.1 21.4 -0.1 15 13.9 SSE 30 37 16 20 1016.5 1015.3 0.0
20/09:00am 28.7 21.7 -0.5 15 13.8 SSE 26 35 14 19 1016.6 1015.4 0.0
20/08:30am 28.1 20.7 -0.9 15 13.5 SSE 28 35 15 19 1016.5 1015.3 0.0
20/08:00am 28.2 20.8 -0.9 15 13.6 SSE 28 33 15 18 1016.3 1015.2 0.0
20/07:30am 27.9 20.6 -0.2 16 13.3 SSE 28 35 15 19 1015.9 1014.8 0.0
20/07:00am 27.8 20.8 -0.3 16 13.2 S 26 33 14 18 1015.6 1014.5 0.0
20/06:30am 28.1 21.2 -0.1 16 13.4 S 26 32 14 17 1015.3 1014.2 0.0
20/06:00am 28.5 21.2 0.3 16 13.5 SSE 28 35 15 19 1015.0 1013.9 0.0
20/05:30am 28.7 22.2 0.4 16 13.6 SSE 24 32 13 17 1014.8 1013.7 0.0
20/05:00am 29.0 22.2 0.7 16 13.7 SSE 26 32 14 17 1014.6 1013.5 0.0
20/04:30am 29.4 22.1 0.1 15 14.1 SSE 28 35 15 19 1014.5 1013.4 0.0
20/04:00am 29.9 23.1 0.5 15 14.2 SSE 26 35 14 19 1014.4 1013.3 0.0
20/03:30am 30.2 22.6 0.7 15 14.4 S 30 41 16 22 1014.3 1013.2 0.0
20/03:00am 30.6 23.4 1.0 15 14.5 S 28 35 15 19 1014.4 1013.3 0.0
20/02:30am 30.9 23.6 2.2 16 14.4 S 30 41 16 22 1014.6 1013.5 0.0
20/02:00am 31.4 24.7 3.4 17 14.4 S 28 35 15 19 1014.8 1013.7 0.0
20/01:30am 31.7 26.5 5.3 19 14.0 SSE 22 32 12 17 1014.8 1013.7 0.0
20/01:00am 32.2 27.2 6.4 20 14.0 SSE 22 32 12 17 1014.9 1013.8 0.0
20/12:30am 32.5 28.1 6.7 20 14.1 SSE 19 26 10 14 1014.8 1013.7 0.0
20/12:00am 32.9 28.6 7.7 21 14.0 SSE 20 26 11 14 1014.7 1013.6 0.0
 
Date/Time
EDT
Temp
°C
App
Temp
°C
Dew
Point
°C
Rel
Hum
%
Delta-T
°C
Wind Press
QNH
hPa
Press
MSL
hPa
Rain since
9am
mm
Dir  Spd
km/h
Gust
km/h
Spd
kts
Gust
kts
19/11:30pm 33.2 28.2 7.9 21 14.1 SSE 24 32 13 17 1014.6 1013.5 0.0
19/11:00pm 33.6 27.9 8.3 21 14.2 S 28 37 15 20 1014.6 1013.5 0.0
19/10:30pm 34.1 27.9 9.4 22 14.2 S 32 43 17 23 1014.4 1013.3 0.0
19/10:00pm 34.4 29.0 9.6 22 14.3 SSE 28 35 15 19 1014.1 1013.0 0.0
19/09:30pm 34.7 29.0 9.9 22 14.4 S 30 39 16 21 1014.1 1013.0 0.0
19/09:00pm 35.1 29.1 10.2 22 14.5 S 32 41 17 22 1013.9 1012.8 0.0
19/08:30pm 35.7 29.1 10.0 21 15.0 S 35 44 19 24 1013.4 1012.3 0.0
19/08:00pm 36.7 30.1 10.1 20 15.6 S 35 43 19 23 1013.0 1011.9 0.0
19/07:30pm 37.4 31.9 10.7 20 15.9 SSE 30 43 16 23 1012.8 1011.7 0.0
19/07:00pm 38.0 32.1 10.4 19 16.4 S 32 41 17 22 1012.5 1011.4 0.0
19/06:30pm 38.8 33.1 11.0 19 16.7 SSE 32 41 17 22 1012.5 1011.4 0.0
19/06:00pm 39.5 33.9 11.6 19 16.9 SSE 32 50 17 27 1012.3 1011.2 0.0
19/05:58pm 39.5 33.9 11.6 19 16.9 SSE 32 50 17 27 1012.2 1011.1 0.0
19/05:30pm 40.2 35.3 11.3 18 17.5 SSE 28 41 15 22 1012.3 1011.2 0.0
19/05:01pm 40.0 35.1 11.2 18 17.4 SSE 28 46 15 25 1012.4 1011.3 0.0
19/05:00pm 39.6 35.2 11.7 19 17.0 SSE 26 39 14 21 1012.5 1011.4 0.0
19/04:42pm 39.9 35.6 11.9 19 17.1 SSE 26 46 14 25 1012.5 1011.4 0.0
19/04:30pm 39.7 35.7 11.7 19 17.0 SSE 24 35 13 19 1012.6 1011.5 0.0
19/04:00pm 39.3 33.7 11.4 19 16.9 SSE 32 41 17 22 1012.9 1011.8 0.0
19/03:30pm 39.6 34.4 11.7 19 16.9 S 30 41 16 22 1013.1 1012.0 0.0
19/03:00pm 37.9 32.2 11.8 21 15.8 SSE 33 44 18 24 1013.6 1012.5 0.0
19/02:30pm 37.9 32.6 11.1 20 16.0 SSE 30 39 16 21 1014.0 1012.9 0.0
19/02:00pm 36.3 30.6 11.2 22 14.9 SSE 32 41 17 22 1014.3 1013.2 0.0
19/01:30pm 36.9 31.7 11.7 22 15.2 SSE 30 43 16 23 1014.6 1013.5 0.0
19/01:00pm 35.9 30.1 11.5 23 14.6 SSE 33 41 18 22 1014.9 1013.8 0.0
19/12:30pm 35.2 29.4 11.6 24 14.1 SSE 33 44 18 24 1015.1 1014.0 0.0
19/12:00pm 32.9 26.7 11.4 27 12.7 SSE 35 44 19 24 1015.4 1014.3 0.0
19/11:30am 32.6 26.9 11.7 28 12.4 SSE 33 44 18 24 1015.6 1014.5 0.0
19/11:00am 31.6 25.3 10.9 28 12.0 SSE 35 48 19 26 1015.6 1014.5 0.0
19/10:30am 31.6 25.4 11.4 29 11.8 S 35 44 19 24 1015.6 1014.5 0.0
19/10:00am 30.8 24.5 11.2 30 11.4 S 35 46 19 25 1015.5 1014.4 0.0
19/09:30am 29.9 23.2 10.9 31 11.0 S 37 46 20 25 1015.4 1014.3 0.0
19/09:00am 29.6 22.6 11.2 32 10.6 S 39 50 21 27 1015.2 1014.1 0.0
19/08:30am 28.9 21.4 11.0 33 10.3 S 41 56 22 30 1015.0 1013.9 0.0
19/08:00am 29.2 22.7 11.7 34 10.2 S 37 46 20 25 1014.4 1013.3 0.0
19/07:30am 29.1 22.7 12.1 35 10.0 S 37 44 20 24 1013.9 1012.8 0.0
19/07:00am 29.7 24.8 12.6 35 10.1 S 30 39 16 21 1013.4 1012.3 0.0
19/06:30am 30.3 25.7 12.2 33 10.7 S 28 33 15 18 1013.0 1011.9 0.0
19/06:00am 30.9 25.4 11.8 31 11.2 S 32 37 17 20 1012.7 1011.6 0.0
19/05:30am 31.5 27.0 11.3 29 11.8 S 26 35 14 19 1012.2 1011.1 0.0
19/05:00am 32.0 27.4 11.2 28 12.2 S 26 33 14 18 1011.7 1010.6 0.0
19/04:30am 32.3 28.2 11.5 28 12.2 SSE 24 30 13 16 1011.6 1010.5 0.0
19/04:00am 32.5 29.4 12.2 29 12.1 SSE 20 24 11 13 1011.4 1010.3 0.0
19/03:30am 32.8 29.7 13.4 30 11.8 SSE 22 28 12 15 1011.2 1010.1 0.0
19/03:00am 33.0 28.4 13.6 31 11.8 SE 30 39 16 21 1010.7 1009.5 0.0
19/02:30am 33.4 28.8 13.5 30 12.1 ESE 30 39 16 21 1011.0 1009.8 0.0
19/02:00am 33.8 28.7 13.8 30 12.3 SE 33 46 18 25 1011.3 1010.2 0.0
19/01:30am 34.4 29.0 13.8 29 12.7 SE 35 41 19 22 1012.2 1011.1 0.0
19/01:00am 34.9 29.6 13.1 27 13.3 SE 33 44 18 24 1012.7 1011.6 0.0
19/12:30am 34.7 29.6 13.0 27 13.2 SSE 32 41 17 22 1012.4 1011.3 0.0
19/12:03am 34.8 28.7 13.0 26 13.3 SSE 37 56 20 30 1012.0 1010.9 0.0
19/12:00am 34.9 28.5 13.1 27 13.3 SSE 39 56 21 30 1012.1 1011.0 0.0
 
Date/Time
EDT
Temp
°C
App
Temp
°C
Dew
Point
°C
Rel
Hum
%
Delta-T
°C
Wind Press
QNH
hPa
Press
MSL
hPa
Rain since
9am
mm
Dir  Spd
km/h
Gust
km/h
Spd
kts
Gust
kts
18/11:30pm 35.2 28.7 12.8 26 13.6 S 39 48 21 26 1011.7 1010.6 0.0
18/11:00pm 35.4 28.0 12.4 25 13.9 S 43 54 23 29 1011.5 1010.4 0.0
18/10:49pm 35.6 30.1 12.5 24 14.0 S 33 52 18 28 1011.6 1010.5 0.0
18/10:30pm 35.1 30.1 13.9 28 13.1 S 33 43 18 23 1011.2 1010.1 0.0
18/10:00pm 35.0 28.4 13.8 28 13.1 S 41 50 22 27 1010.4 1009.2 0.0
18/09:30pm 35.7 30.3 13.8 27 13.5 S 35 43 19 23 1010.6 1009.4 0.0
18/09:00pm 36.3 32.7 13.1 25 14.2 S 24 39 13 21 1010.2 1009.0 0.0
18/08:30pm 36.4 31.1 13.2 25 14.2 S 33 43 18 23 1009.1 1008.0 0.0
18/08:00pm 37.0 29.8 13.1 24 14.7 S 43 54 23 29 1007.7 1006.6 0.0
18/07:59pm 37.0 29.8 13.1 24 14.7 S 43 54 23 29 1007.7 1006.6 0.0
18/07:30pm 37.4 29.2 12.8 23 15.1 SW 48 59 26 32 1007.4 1006.3 0.0
18/07:26pm 37.3 27.9 12.7 23 15.0 SW 54 72 29 39 1007.3 1006.2 0.0
18/07:17pm 37.9 29.7 11.8 21 15.8 SW 46 72 25 39 1007.2 1006.1 0.0
18/07:15pm 39.7 31.8 10.9 18 17.3 WSW 43 69 23 37 1007.1 1006.0 0.0
18/07:12pm 39.9 31.4 9.3 16 18.0 WSW 44 56 24 30 1006.7 1005.6 0.0
18/07:00pm 41.0 33.6 8.2 14 19.1 W 37 48 20 26 1005.6 1004.5 0.0
18/06:30pm 41.3 34.6 7.4 13 19.5 W 32 54 17 29 1005.0 1003.8 0.0
18/06:27pm 41.4 35.5 7.4 13 19.6 W 28 52 15 28 1005.0 1003.8 0.0
18/06:18pm 41.4 34.7 7.4 13 19.6 WSW 32 39 17 21 1005.4 1004.3 0.0
18/06:01pm 41.5 32.4 8.6 14 19.3 W 46 67 25 36 1005.3 1004.1 0.0
18/06:00pm 41.6 33.0 8.7 14 19.4 WSW 44 57 24 31 1005.4 1004.3 0.0
18/05:33pm 43.1 35.5 7.6 12 20.6 W 37 63 20 34 1005.0 1003.8 0.0
18/05:30pm 43.2 37.0 7.7 12 20.7 W 30 63 16 34 1004.9 1003.7 0.0
18/05:28pm 43.9 38.6 6.9 11 21.4 WNW 24 63 13 34 1004.7 1003.5 0.0
18/05:00pm 44.6 38.4 6.1 10 22.1 WSW 28 39 15 21 1004.6 1003.4 0.0
18/04:30pm 44.9 40.3 6.3 10 22.2 W 20 32 11 17 1004.5 1003.3 0.0
18/04:00pm 44.5 39.7 4.5 9 22.5 W 19 28 10 15 1004.9 1003.7 0.0
18/03:30pm 43.4 37.0 5.2 10 21.5 WNW 28 35 15 19 1005.5 1004.4 0.0
18/03:18pm 44.5 38.3 6.0 10 22.0 WNW 28 46 15 25 1005.6 1004.5 0.0
18/03:00pm 44.5 38.6 6.0 10 22.1 NW 26 39 14 21 1005.8 1004.7 0.0
18/02:30pm 43.1 38.5 6.3 11 21.0 NW 20 28 11 15 1006.0 1004.9 0.0
18/02:00pm 42.1 37.6 6.8 12 20.3 N 20 26 11 14 1006.3 1005.2 0.0
18/01:38pm 42.3 36.0 5.7 11 20.6 NNW 28 46 15 25 1006.1 1005.0 0.0
18/01:30pm 42.0 36.7 6.7 12 20.2 NNW 24 30 13 16 1006.5 1005.4 0.0
18/01:00pm 41.7 37.6 7.7 13 19.7 NNW 19 26 10 14 1006.7 1005.6 0.0
18/12:30pm 40.8 36.5 7.0 13 19.3 NNW 19 24 10 13 1006.7 1005.6 0.0
18/12:00pm 40.7 37.4 8.0 14 19.0 N 15 20 8 11 1006.9 1005.8 0.0
18/11:30am 40.2 37.2 7.6 14 18.7 NNW 13 17 7 9 1007.0 1005.9 0.0
18/11:00am 40.2 37.2 7.6 14 18.8 NNW 13 17 7 9 1007.2 1006.1 0.0
18/10:30am 40.2 37.9 7.6 14 18.7 N 9 13 5 7 1007.1 1006.0 0.0
18/10:00am 40.1 37.8 7.5 14 18.7 NW 9 15 5 8 1007.0 1005.9 0.0
18/09:30am 40.2 38.3 6.5 13 19.0 E 6 11 3 6 1007.0 1005.9 0.0
18/09:00am 39.7 37.3 7.2 14 18.6 ENE 9 11 5 6 1006.9 1005.8 0.0
18/08:30am 38.2 37.1 7.0 15 17.6 N 2 6 1 3 1006.9 1005.8 0.0
18/08:00am 36.9 36.4 7.8 17 16.6 CALM 0 0 0 0 1006.6 1005.5 0.0
18/07:30am 35.8 33.2 7.8 18 15.8 SW 11 20 6 11 1006.2 1005.1 0.0
18/07:00am 35.0 32.0 7.9 19 15.3 WNW 13 15 7 8 1005.6 1004.5 0.0
18/06:30am 34.6 32.0 7.6 19 15.1 N 11 15 6 8 1005.2 1004.0 0.0
18/06:00am 34.9 32.5 7.1 18 15.5 N 9 13 5 7 1004.5 1003.3 0.0
18/05:30am 36.1 34.5 8.0 18 15.9 NNW 6 11 3 6 1004.2 1003.0 0.0
18/05:00am 36.2 33.9 7.3 17 16.3 NW 9 11 5 6 1003.9 1002.7 0.0
18/04:30am 36.5 34.2 7.5 17 16.4 NW 9 11 5 6 1003.7 1002.5 0.0

Other Formats:

Comma delimited format used in spreadsheet applications
http://www.bom.gov.au/fwo/IDN60801/IDN60801.95699.axf

JavaScript Object Notation format (JSON) in row-major order
http://www.bom.gov.au/fwo/IDN60801/IDN60801.95699.json